createdAt,value
2019-03-22T00:00:31.842Z,86.66
2019-03-22T00:02:07.006Z,87.11
2019-03-22T00:03:42.311Z,86.96
2019-03-22T00:05:17.492Z,86.96
2019-03-22T00:06:52.793Z,86.32
2019-03-22T00:08:27.998Z,86.06
2019-03-22T00:10:03.393Z,86.12
2019-03-22T00:11:38.678Z,86.50
2019-03-22T00:13:13.854Z,86.22
2019-03-22T00:14:49.037Z,86.26
2019-03-22T00:16:24.228Z,86.57
2019-03-22T00:17:59.472Z,86.74
2019-03-22T00:19:34.714Z,86.52
2019-03-22T00:21:09.895Z,86.39
2019-03-22T00:22:45.110Z,86.52
2019-03-22T00:24:20.336Z,86.21
2019-03-22T00:25:55.585Z,87.21
2019-03-22T00:27:30.747Z,87.08
2019-03-22T00:29:05.930Z,86.96
2019-03-22T00:30:41.128Z,86.88
2019-03-22T00:32:16.312Z,86.69
2019-03-22T00:33:51.618Z,86.76
2019-03-22T00:35:26.796Z,87.19
2019-03-22T00:37:01.981Z,87.20
2019-03-22T00:38:37.166Z,87.50
2019-03-22T00:40:12.681Z,87.24
2019-03-22T00:41:48.855Z,87.15
2019-03-22T00:43:24.024Z,86.94
2019-03-22T00:44:59.210Z,87.09
2019-03-22T00:46:34.383Z,87.57
2019-03-22T00:48:09.584Z,87.24
2019-03-22T00:49:44.759Z,86.96
2019-03-22T00:51:19.940Z,87.01
2019-03-22T00:52:55.113Z,87.10
2019-03-22T00:54:30.297Z,87.52
2019-03-22T00:56:05.586Z,86.83
2019-03-22T00:57:40.820Z,86.92
2019-03-22T00:59:15.974Z,87.05
2019-03-22T01:00:52.439Z,87.57
2019-03-22T01:02:27.808Z,87.42
2019-03-22T01:04:03.098Z,87.39
2019-03-22T01:05:38.278Z,87.15
2019-03-22T01:07:13.449Z,87.21
2019-03-22T01:08:48.694Z,87.34
2019-03-22T01:10:23.887Z,87.90
2019-03-22T01:11:59.117Z,87.57
2019-03-22T01:13:34.338Z,87.26
2019-03-22T01:15:10.328Z,87.06
2019-03-22T01:16:45.500Z,86.85
2019-03-22T01:18:20.684Z,87.75
2019-03-22T01:19:55.916Z,87.51
2019-03-22T01:21:31.132Z,87.33
2019-03-22T01:23:06.301Z,87.48
2019-03-22T01:24:41.506Z,87.36
2019-03-22T01:26:16.689Z,87.29
2019-03-22T01:27:51.893Z,87.12
2019-03-22T01:29:27.068Z,87.05
2019-03-22T01:31:02.239Z,87.25
2019-03-22T01:32:37.430Z,87.32
2019-03-22T01:34:12.604Z,87.61
2019-03-22T01:35:47.777Z,87.65
2019-03-22T01:37:22.966Z,87.62
2019-03-22T01:38:58.152Z,88.17
2019-03-22T01:40:33.651Z,87.88
2019-03-22T01:42:09.788Z,87.43
2019-03-22T01:43:45.039Z,87.62
2019-03-22T01:45:20.332Z,87.44
2019-03-22T01:46:55.505Z,87.26
2019-03-22T01:48:30.979Z,87.28
2019-03-22T01:50:07.702Z,87.35
2019-03-22T01:51:42.881Z,86.95
2019-03-22T01:53:18.094Z,87.28
2019-03-22T01:54:53.282Z,87.48
2019-03-22T01:56:28.453Z,87.78
2019-03-22T01:58:03.708Z,87.52
2019-03-22T01:59:38.889Z,87.36
2019-03-22T02:01:14.066Z,87.42
2019-03-22T02:02:49.286Z,87.12
2019-03-22T02:04:24.469Z,87.16
2019-03-22T02:06:02.425Z,87.47
2019-03-22T02:07:37.612Z,87.42
2019-03-22T02:09:13.203Z,87.53
2019-03-22T02:10:48.378Z,87.61
2019-03-22T02:12:24.005Z,87.93
2019-03-22T02:13:59.228Z,88.15
2019-03-22T02:15:34.461Z,88.50
2019-03-22T02:17:09.638Z,87.73
2019-03-22T02:18:45.974Z,88.04
2019-03-22T02:20:27.235Z,88.54
2019-03-22T02:22:02.464Z,88.54
2019-03-22T02:23:37.679Z,88.08
2019-03-22T02:25:13.026Z,88.38
2019-03-22T02:26:48.200Z,88.22
2019-03-22T02:28:23.398Z,88.45
2019-03-22T02:29:58.563Z,88.39
2019-03-22T02:31:33.738Z,88.37
2019-03-22T02:33:08.934Z,88.43
2019-03-22T02:34:44.126Z,88.68
2019-03-22T02:36:19.324Z,88.44
2019-03-22T02:37:54.493Z,88.07
2019-03-22T02:39:29.922Z,88.22
2019-03-22T02:41:05.676Z,88.85
2019-03-22T02:42:40.882Z,88.74
2019-03-22T02:44:16.033Z,88.66
2019-03-22T02:45:51.230Z,88.43
2019-03-22T02:47:26.451Z,88.49
2019-03-22T02:49:01.652Z,88.42
2019-03-22T02:50:36.906Z,88.73
2019-03-22T02:52:12.105Z,88.67
2019-03-22T02:53:47.285Z,88.82
2019-03-22T02:55:22.473Z,88.64
2019-03-22T02:56:57.693Z,88.37
2019-03-22T02:58:32.880Z,88.81
2019-03-22T03:00:09.412Z,89.51
2019-03-22T03:01:44.604Z,88.91
2019-03-22T03:03:19.852Z,88.91
2019-03-22T03:04:55.112Z,89.13
2019-03-22T03:06:30.320Z,88.61
2019-03-22T03:08:05.571Z,88.78
2019-03-22T03:09:40.775Z,88.23
2019-03-22T03:11:15.956Z,88.72
2019-03-22T03:12:51.139Z,88.75
2019-03-22T03:14:26.368Z,88.62
2019-03-22T03:16:01.557Z,88.56
2019-03-22T03:17:36.782Z,88.42
2019-03-22T03:19:11.966Z,88.63
2019-03-22T03:20:47.174Z,89.04
2019-03-22T03:22:22.383Z,88.95
2019-03-22T03:23:57.584Z,89.03
2019-03-22T03:25:32.778Z,88.36
2019-03-22T03:27:07.984Z,88.50
2019-03-22T03:28:43.172Z,88.66
2019-03-22T03:30:19.355Z,89.10
2019-03-22T03:31:54.592Z,88.80
2019-03-22T03:33:29.893Z,88.64
2019-03-22T03:35:06.233Z,88.80
2019-03-22T03:36:41.499Z,88.27
2019-03-22T03:38:16.731Z,88.37
2019-03-22T03:39:51.918Z,88.80
2019-03-22T03:41:27.113Z,88.83
2019-03-22T03:43:02.371Z,88.84
2019-03-22T03:44:37.592Z,88.74
2019-03-22T03:46:12.910Z,88.73
2019-03-22T03:47:49.182Z,88.73
2019-03-22T03:49:24.366Z,88.79
2019-03-22T03:50:59.619Z,88.76
2019-03-22T03:52:34.790Z,88.63
2019-03-22T03:54:09.978Z,88.50
2019-03-22T03:55:45.176Z,88.89
2019-03-22T03:57:20.362Z,88.99
2019-03-22T03:58:55.582Z,89.01
2019-03-22T04:00:30.857Z,88.89
2019-03-22T04:02:06.057Z,88.76
2019-03-22T04:03:41.230Z,88.90
2019-03-22T04:05:16.424Z,88.86
2019-03-22T04:06:51.630Z,88.82
2019-03-22T04:08:26.809Z,88.94
2019-03-22T04:10:02.149Z,89.01
2019-03-22T04:11:37.472Z,88.81
2019-03-22T04:13:12.706Z,88.75
2019-03-22T04:14:47.927Z,89.04
2019-03-22T04:16:23.112Z,88.71
2019-03-22T04:17:58.347Z,88.62
2019-03-22T04:19:33.599Z,88.55
2019-03-22T04:21:08.792Z,89.04
2019-03-22T04:22:44.063Z,88.60
2019-03-22T04:24:19.251Z,88.89
2019-03-22T04:25:54.426Z,89.16
2019-03-22T04:27:29.634Z,89.02
2019-03-22T04:29:07.790Z,88.58
2019-03-22T04:30:41.709Z,88.62
2019-03-22T04:32:17.207Z,88.48
2019-03-22T04:33:52.400Z,88.55
2019-03-22T04:35:27.614Z,88.74
2019-03-22T04:37:02.808Z,88.82
2019-03-22T04:38:38.008Z,88.84
2019-03-22T04:40:26.978Z,88.54
2019-03-22T04:42:02.190Z,88.71
2019-03-22T04:43:37.443Z,88.72
2019-03-22T04:45:12.792Z,88.14
2019-03-22T04:46:48.070Z,88.29
2019-03-22T04:48:31.458Z,87.94
2019-03-22T04:50:07.016Z,87.73
2019-03-22T04:51:42.426Z,87.84
2019-03-22T04:53:21.801Z,88.09
2019-03-22T04:54:58.477Z,88.64
2019-03-22T04:56:35.141Z,88.64
2019-03-22T04:58:10.507Z,88.35
2019-03-22T04:59:47.654Z,88.48
2019-03-22T05:01:23.966Z,88.60
2019-03-22T05:02:59.652Z,88.50
2019-03-22T05:04:35.339Z,88.27
2019-03-22T05:06:11.548Z,88.04
2019-03-22T05:07:47.016Z,89.03
2019-03-22T05:09:23.303Z,88.38
2019-03-22T05:10:59.934Z,88.19
2019-03-22T05:12:35.248Z,88.03
2019-03-22T05:14:10.687Z,89.32
2019-03-22T05:15:46.335Z,88.82
2019-03-22T05:17:21.584Z,88.09
2019-03-22T05:18:57.841Z,88.51
2019-03-22T05:20:34.571Z,88.48
2019-03-22T05:22:11.829Z,89.63
2019-03-22T05:23:48.581Z,88.92
2019-03-22T05:25:23.942Z,88.86
2019-03-22T05:27:00.402Z,89.32
2019-03-22T05:28:35.685Z,89.38
2019-03-22T05:30:22.669Z,88.74
2019-03-22T05:32:04.605Z,88.25
2019-03-22T05:33:40.858Z,90.16
2019-03-22T05:35:15.979Z,90.77
2019-03-22T05:36:51.155Z,90.40
2019-03-22T05:38:26.355Z,89.14
2019-03-22T05:40:01.563Z,88.29
2019-03-22T05:41:36.843Z,88.13
2019-03-22T05:43:12.984Z,89.36
2019-03-22T05:44:48.236Z,89.28
2019-03-22T05:46:23.526Z,87.98
2019-03-22T05:47:59.668Z,89.24
2019-03-22T05:49:34.848Z,88.09
2019-03-22T05:51:10.056Z,89.14
2019-03-22T05:52:45.231Z,91.06
2019-03-22T05:54:20.413Z,91.05
2019-03-22T05:55:55.629Z,89.64
2019-03-22T05:57:30.829Z,91.09
2019-03-22T05:59:06.081Z,90.80
2019-03-22T06:00:41.271Z,90.72
2019-03-22T06:02:16.465Z,90.32
2019-03-22T06:03:51.654Z,89.90
2019-03-22T06:05:26.858Z,90.70
2019-03-22T06:07:02.019Z,89.02
2019-03-22T06:08:37.229Z,88.89
2019-03-22T06:10:12.550Z,88.36
2019-03-22T06:11:47.884Z,87.60
2019-03-22T06:13:23.077Z,88.57
2019-03-22T06:14:58.279Z,87.97
2019-03-22T06:16:33.463Z,87.82
2019-03-22T06:18:08.686Z,87.10
2019-03-22T06:19:43.901Z,87.07
2019-03-22T06:21:19.093Z,86.94
2019-03-22T06:22:54.288Z,86.90
2019-03-22T06:24:29.487Z,87.94
2019-03-22T06:26:04.690Z,87.55
2019-03-22T06:27:39.935Z,86.34
2019-03-22T06:29:15.190Z,86.01
2019-03-22T06:30:50.379Z,85.85
2019-03-22T06:32:25.582Z,85.25
2019-03-22T06:34:00.799Z,85.97
2019-03-22T06:35:36.021Z,85.92
2019-03-22T06:37:11.307Z,85.50
2019-03-22T06:38:46.517Z,85.04
2019-03-22T06:40:21.752Z,86.17
2019-03-22T06:41:56.958Z,85.79
2019-03-22T06:43:32.135Z,85.06
2019-03-22T06:45:07.817Z,84.78
2019-03-22T06:46:43.060Z,85.52
2019-03-22T06:48:18.322Z,86.17
2019-03-22T06:49:53.527Z,85.62
2019-03-22T06:51:28.830Z,83.74
2019-03-22T06:53:05.185Z,83.63
2019-03-22T06:54:40.384Z,84.80
2019-03-22T06:56:15.587Z,83.56
2019-03-22T06:57:50.785Z,84.06
2019-03-22T06:59:26.318Z,83.55
2019-03-22T07:01:01.508Z,84.19
2019-03-22T07:02:36.720Z,84.99
2019-03-22T07:04:11.910Z,85.06
2019-03-22T07:05:47.091Z,83.98
2019-03-22T07:07:22.545Z,82.69
2019-03-22T07:08:57.807Z,84.37
2019-03-22T07:10:32.975Z,83.14
2019-03-22T07:12:08.248Z,82.87
2019-03-22T07:13:43.465Z,81.40
2019-03-22T07:15:18.633Z,82.73
2019-03-22T07:16:53.837Z,79.30
2019-03-22T07:18:29.064Z,79.95
2019-03-22T07:20:04.662Z,80.24
2019-03-22T07:21:39.919Z,79.23
2019-03-22T07:23:15.109Z,77.04
2019-03-22T07:24:50.314Z,75.56
2019-03-22T07:26:25.520Z,76.32
2019-03-22T07:28:00.710Z,76.03
2019-03-22T07:29:35.880Z,76.47
2019-03-22T07:31:11.141Z,74.38
2019-03-22T07:32:47.477Z,73.28
2019-03-22T07:34:22.676Z,71.94
2019-03-22T07:35:57.857Z,75.83
2019-03-22T07:37:33.064Z,74.74
2019-03-22T07:39:08.858Z,77.23
2019-03-22T07:40:44.071Z,77.77
2019-03-22T07:42:19.402Z,77.31
2019-03-22T07:43:54.534Z,76.38
2019-03-22T07:45:29.789Z,75.18
2019-03-22T07:47:05.194Z,77.64
2019-03-22T07:48:40.411Z,76.90
2019-03-22T07:50:15.707Z,78.25
2019-03-22T07:51:50.929Z,78.58
2019-03-22T07:53:26.102Z,76.35
2019-03-22T07:55:01.276Z,77.21
2019-03-22T07:56:45.547Z,79.08
2019-03-22T07:58:20.860Z,77.35
2019-03-22T07:59:56.028Z,74.33
2019-03-22T08:01:31.235Z,73.28
2019-03-22T08:03:06.440Z,73.04
2019-03-22T08:04:41.638Z,72.15
2019-03-22T08:06:16.880Z,74.80
2019-03-22T08:07:52.075Z,74.16
2019-03-22T08:09:27.335Z,72.28
2019-03-22T08:11:02.574Z,72.61
2019-03-22T08:12:37.907Z,70.49
2019-03-22T08:14:13.251Z,68.79
2019-03-22T08:15:48.447Z,68.95
2019-03-22T08:17:23.667Z,70.42
2019-03-22T08:18:58.860Z,66.91
2019-03-22T08:20:34.103Z,66.77
2019-03-22T08:22:09.333Z,67.13
2019-03-22T08:23:44.551Z,63.74
2019-03-22T08:25:20.146Z,63.74
2019-03-22T08:26:55.457Z,63.32
2019-03-22T08:28:30.753Z,64.37
2019-03-22T08:30:06.708Z,66.25
2019-03-22T08:31:41.905Z,66.25
2019-03-22T08:33:17.252Z,65.13
2019-03-22T08:34:52.442Z,61.43
2019-03-22T08:36:27.611Z,62.79
2019-03-22T08:38:02.827Z,59.52
2019-03-22T08:39:38.040Z,63.50
2019-03-22T08:41:13.343Z,61.58
2019-03-22T08:42:48.504Z,61.62
2019-03-22T08:44:24.019Z,60.13
2019-03-22T08:45:59.216Z,60.64
2019-03-22T08:47:34.760Z,58.58
2019-03-22T08:49:10.102Z,59.91
2019-03-22T08:50:45.371Z,61.37
2019-03-22T08:52:20.645Z,61.49
2019-03-22T08:53:55.980Z,61.68
2019-03-22T08:55:31.191Z,59.61
2019-03-22T08:57:06.549Z,54.31
2019-03-22T08:58:41.860Z,55.82
2019-03-22T09:00:17.332Z,57.21
2019-03-22T09:01:52.532Z,55.07
2019-03-22T09:03:27.791Z,57.61
2019-03-22T09:05:02.977Z,56.97
2019-03-22T09:06:38.162Z,58.75
2019-03-22T09:08:15.995Z,59.10
2019-03-22T09:09:50.317Z,57.84
2019-03-22T09:11:25.873Z,58.40
2019-03-22T09:13:01.058Z,57.61
2019-03-22T09:14:36.219Z,60.35
2019-03-22T09:16:11.455Z,59.32
2019-03-22T09:17:47.714Z,58.40
2019-03-22T09:19:22.954Z,59.38
2019-03-22T09:20:58.181Z,59.22
2019-03-22T09:22:33.389Z,58.29
2019-03-22T09:24:08.552Z,57.32
2019-03-22T09:25:43.811Z,57.37
2019-03-22T09:27:19.039Z,55.23
2019-03-22T09:28:54.320Z,55.03
2019-03-22T09:30:32.251Z,57.33
2019-03-22T09:32:07.550Z,56.19
2019-03-22T09:33:42.756Z,55.53
2019-03-22T09:35:17.925Z,56.82
2019-03-22T09:36:53.200Z,54.82
2019-03-22T09:38:28.689Z,54.70
2019-03-22T09:40:04.350Z,54.08
2019-03-22T09:41:39.538Z,52.48
2019-03-22T09:43:14.772Z,53.21
2019-03-22T09:44:50.129Z,50.85
2019-03-22T09:46:25.353Z,51.92
2019-03-22T09:48:01.509Z,52.08
2019-03-22T09:49:37.478Z,52.02
2019-03-22T09:51:12.639Z,49.09
2019-03-22T09:52:47.942Z,50.88
2019-03-22T09:54:24.206Z,50.29
2019-03-22T09:55:59.410Z,52.40
2019-03-22T09:57:34.671Z,53.55
2019-03-22T09:59:09.954Z,54.16
2019-03-22T10:00:48.366Z,54.35
2019-03-22T10:02:22.080Z,53.13
2019-03-22T10:03:57.290Z,50.88
2019-03-22T10:05:32.606Z,53.65
2019-03-22T10:07:07.818Z,51.41
2019-03-22T10:08:43.044Z,50.40
2019-03-22T10:10:18.253Z,50.68
2019-03-22T10:11:53.431Z,50.97
2019-03-22T10:13:28.607Z,51.11
2019-03-22T10:15:03.889Z,52.26
2019-03-22T10:16:39.104Z,51.24
2019-03-22T10:18:14.298Z,53.44
2019-03-22T10:19:51.797Z,50.96
2019-03-22T10:21:27.100Z,50.61
2019-03-22T10:23:02.324Z,51.40
2019-03-22T10:24:38.517Z,50.26
2019-03-22T10:26:13.716Z,49.04
2019-03-22T10:27:48.897Z,48.80
2019-03-22T10:29:24.164Z,51.71
2019-03-22T10:30:59.376Z,49.90
2019-03-22T10:32:34.714Z,49.10
2019-03-22T10:34:09.916Z,48.46
2019-03-22T10:35:45.198Z,51.86
2019-03-22T10:37:20.465Z,51.29
2019-03-22T10:38:55.717Z,48.31
2019-03-22T10:40:30.922Z,49.43
2019-03-22T10:42:06.231Z,47.56
2019-03-22T10:43:41.429Z,45.78
2019-03-22T10:45:16.977Z,48.96
2019-03-22T10:46:52.183Z,48.11
2019-03-22T10:48:27.463Z,48.73
2019-03-22T10:50:02.620Z,49.49
2019-03-22T10:51:38.007Z,50.63
2019-03-22T10:53:13.270Z,50.94
2019-03-22T10:54:48.562Z,49.21
2019-03-22T10:56:25.062Z,50.19
2019-03-22T10:58:00.321Z,53.23
2019-03-22T10:59:35.528Z,54.26
2019-03-22T11:01:10.754Z,53.22
2019-03-22T11:02:45.965Z,53.10
2019-03-22T11:04:21.184Z,54.54
2019-03-22T11:05:56.362Z,54.13
2019-03-22T11:07:31.569Z,54.62
2019-03-22T11:09:08.746Z,55.34
2019-03-22T11:10:43.938Z,54.63
2019-03-22T11:12:19.147Z,55.64
2019-03-22T11:13:54.435Z,53.96
2019-03-22T11:15:29.766Z,54.23
2019-03-22T11:17:05.080Z,53.72
2019-03-22T11:18:40.337Z,52.90
2019-03-22T11:20:16.534Z,52.90
2019-03-22T11:21:51.743Z,54.40
2019-03-22T11:23:26.952Z,54.62
2019-03-22T11:25:02.154Z,53.95
2019-03-22T11:26:38.399Z,52.95
2019-03-22T11:28:13.647Z,53.25
2019-03-22T11:29:48.868Z,53.49
2019-03-22T11:31:28.581Z,54.57
2019-03-22T11:33:01.145Z,53.13
2019-03-22T11:34:37.469Z,53.13
2019-03-22T11:36:12.681Z,54.78
2019-03-22T11:37:47.961Z,54.46
2019-03-22T11:39:23.221Z,54.46
2019-03-22T11:40:58.424Z,53.77
2019-03-22T11:42:33.612Z,55.24
2019-03-22T11:44:08.916Z,55.34
2019-03-22T11:45:44.136Z,56.29
2019-03-22T11:47:19.336Z,55.67
2019-03-22T11:48:54.622Z,55.07
2019-03-22T11:50:29.938Z,54.88
2019-03-22T11:52:05.426Z,54.15
2019-03-22T11:53:40.662Z,53.98
2019-03-22T11:55:16.239Z,54.66
2019-03-22T11:56:52.595Z,55.59
2019-03-22T11:58:27.823Z,55.80
2019-03-22T12:00:05.051Z,54.73
2019-03-22T12:01:41.825Z,55.06
2019-03-22T12:03:17.053Z,55.41
2019-03-22T12:04:52.254Z,55.18
2019-03-22T12:06:27.570Z,55.14
2019-03-22T12:08:02.778Z,54.20
2019-03-22T12:09:37.950Z,54.29
2019-03-22T12:11:13.130Z,54.71
2019-03-22T12:12:48.619Z,55.23
2019-03-22T12:14:23.867Z,54.90
2019-03-22T12:15:59.063Z,55.33
2019-03-22T12:17:34.315Z,54.75
2019-03-22T12:19:09.528Z,53.89
2019-03-22T12:20:44.788Z,54.73
2019-03-22T12:22:20.007Z,53.96
2019-03-22T12:23:55.200Z,54.14
2019-03-22T12:25:30.449Z,54.16
2019-03-22T12:27:05.659Z,54.33
2019-03-22T12:28:40.867Z,54.20
2019-03-22T12:30:16.749Z,53.79
2019-03-22T12:31:51.958Z,54.34
2019-03-22T12:33:27.129Z,54.90
2019-03-22T12:35:02.363Z,54.63
2019-03-22T12:36:37.586Z,55.34
2019-03-22T12:38:12.916Z,54.62
2019-03-22T12:39:48.184Z,53.78
2019-03-22T12:41:23.387Z,53.31
2019-03-22T12:42:58.592Z,53.28
2019-03-22T12:44:33.849Z,53.81
2019-03-22T12:46:09.030Z,53.88
2019-03-22T12:47:44.223Z,54.10
2019-03-22T12:49:19.469Z,54.22
2019-03-22T12:50:54.696Z,54.56
2019-03-22T12:52:31.391Z,54.48
2019-03-22T12:54:07.731Z,54.13
2019-03-22T12:55:42.923Z,54.87
2019-03-22T12:57:18.116Z,54.68
2019-03-22T12:58:53.321Z,54.92
2019-03-22T13:00:28.636Z,54.04
2019-03-22T13:02:03.919Z,54.27
2019-03-22T13:03:39.125Z,54.26
2019-03-22T13:05:16.263Z,54.00
2019-03-22T13:06:53.125Z,53.44
2019-03-22T13:08:28.555Z,53.60
2019-03-22T13:10:04.647Z,53.46
2019-03-22T13:11:39.879Z,53.40
2019-03-22T13:13:15.081Z,53.30
2019-03-22T13:14:50.567Z,53.73
2019-03-22T13:16:25.850Z,53.36
2019-03-22T13:18:01.071Z,53.64
2019-03-22T13:19:36.281Z,53.88
2019-03-22T13:21:11.479Z,53.70
2019-03-22T13:22:46.752Z,53.81
2019-03-22T13:24:21.975Z,54.17
2019-03-22T13:25:57.173Z,53.85
2019-03-22T13:27:32.348Z,54.51
2019-03-22T13:29:07.587Z,54.62
2019-03-22T13:30:42.771Z,54.03
2019-03-22T13:32:17.973Z,53.76
2019-03-22T13:33:53.189Z,54.21
2019-03-22T13:35:28.503Z,54.04
2019-03-22T13:37:03.874Z,54.25
2019-03-22T13:38:39.148Z,54.01
2019-03-22T13:40:14.474Z,53.26
2019-03-22T13:41:49.804Z,53.53
2019-03-22T13:43:24.968Z,53.63
2019-03-22T13:45:00.338Z,53.99
2019-03-22T13:46:40.175Z,53.17
2019-03-22T13:48:12.579Z,52.71
2019-03-22T13:49:47.844Z,52.25
2019-03-22T13:51:23.079Z,52.15
2019-03-22T13:52:58.302Z,52.45
2019-03-22T13:54:33.508Z,52.67
2019-03-22T13:56:08.729Z,52.86
2019-03-22T13:57:43.953Z,53.36
2019-03-22T13:59:19.161Z,53.04
2019-03-22T14:00:54.428Z,52.43
2019-03-22T14:02:29.601Z,53.35
2019-03-22T14:04:04.837Z,52.23
2019-03-22T14:05:40.144Z,52.48
2019-03-22T14:07:15.429Z,52.34
2019-03-22T14:08:50.638Z,52.50
2019-03-22T14:10:33.436Z,53.04
2019-03-22T14:12:08.641Z,52.58
2019-03-22T14:13:43.832Z,52.11
2019-03-22T14:15:19.066Z,51.64
2019-03-22T14:16:54.243Z,51.74
2019-03-22T14:18:29.439Z,51.88
2019-03-22T14:20:11.263Z,51.81
2019-03-22T14:21:42.107Z,52.01
2019-03-22T14:23:17.328Z,51.74
2019-03-22T14:24:52.547Z,51.68
2019-03-22T14:26:27.726Z,52.19
2019-03-22T14:28:02.937Z,51.97
2019-03-22T14:29:38.150Z,52.05
2019-03-22T14:31:13.397Z,51.80
2019-03-22T14:32:48.675Z,52.00
2019-03-22T14:34:23.923Z,52.29
2019-03-22T14:35:59.149Z,52.39
2019-03-22T14:37:34.354Z,52.55
2019-03-22T14:39:09.794Z,52.77
2019-03-22T14:40:45.381Z,52.91
2019-03-22T14:42:20.613Z,52.52
2019-03-22T14:43:55.847Z,53.00
2019-03-22T14:45:32.216Z,52.94
2019-03-22T14:47:12.983Z,52.29
2019-03-22T14:48:48.991Z,51.34
2019-03-22T14:50:24.298Z,51.40
2019-03-22T14:51:59.489Z,51.54
2019-03-22T14:53:34.711Z,51.70
2019-03-22T14:55:11.149Z,51.46
2019-03-22T14:56:46.735Z,51.60
2019-03-22T14:58:22.048Z,52.72
2019-03-22T14:59:59.310Z,52.73
2019-03-22T15:01:34.746Z,52.35
2019-03-22T15:03:26.326Z,52.72
2019-03-22T15:05:01.528Z,52.70
2019-03-22T15:06:37.706Z,52.78
2019-03-22T15:08:12.906Z,51.97
2019-03-22T15:09:48.197Z,52.22
2019-03-22T15:11:23.467Z,52.95
2019-03-22T15:12:58.671Z,53.41
2019-03-22T15:14:53.394Z,53.20
2019-03-22T15:16:47.678Z,53.25
2019-03-22T15:18:34.650Z,53.03
2019-03-22T15:20:23.027Z,52.44
2019-03-22T15:22:14.246Z,52.31
2019-03-22T15:24:14.386Z,52.49
2019-03-22T15:26:07.506Z,52.25
2019-03-22T15:27:55.949Z,52.30
2019-03-22T15:29:40.500Z,52.93
2019-03-22T15:31:33.717Z,52.80
2019-03-22T15:33:34.132Z,53.06
2019-03-22T15:37:30.021Z,53.48
2019-03-22T15:39:29.591Z,53.26
2019-03-22T15:41:05.182Z,53.22
2019-03-22T15:42:40.459Z,53.91
2019-03-22T15:44:15.820Z,53.45
2019-03-22T15:45:51.163Z,53.65
2019-03-22T15:47:26.457Z,54.17
2019-03-22T15:49:01.622Z,54.17
2019-03-22T15:50:36.926Z,54.35
2019-03-22T15:52:12.122Z,54.37
2019-03-22T15:53:47.352Z,54.34
2019-03-22T15:55:22.658Z,54.45
2019-03-22T15:56:57.933Z,54.62
2019-03-22T15:58:34.231Z,54.94
2019-03-22T16:00:12.782Z,54.94
2019-03-22T16:01:49.069Z,55.16
2019-03-22T16:03:24.242Z,54.85
2019-03-22T16:04:59.481Z,54.85
2019-03-22T16:06:34.673Z,55.08
2019-03-22T16:08:09.855Z,54.67
2019-03-22T16:09:45.117Z,54.63
2019-03-22T16:11:20.398Z,54.81
2019-03-22T16:12:55.827Z,54.98
2019-03-22T16:14:31.532Z,55.06
2019-03-22T16:16:07.075Z,55.28
2019-03-22T16:17:42.367Z,55.42
2019-03-22T16:19:17.937Z,55.41
2019-03-22T16:20:59.877Z,56.06
2019-03-22T16:22:30.038Z,56.23
2019-03-22T16:24:05.221Z,56.15
2019-03-22T16:25:40.449Z,56.54
2019-03-22T16:27:15.723Z,56.08
2019-03-22T16:28:50.914Z,56.51
2019-03-22T16:30:26.146Z,55.93
2019-03-22T16:32:01.354Z,56.11
2019-03-22T16:33:36.695Z,56.14
2019-03-22T16:35:12.465Z,56.37
2019-03-22T16:36:50.784Z,57.02
2019-03-22T16:38:25.975Z,57.17
2019-03-22T16:40:01.263Z,57.17
2019-03-22T16:41:36.519Z,57.86
2019-03-22T16:43:11.712Z,58.36
2019-03-22T16:44:46.896Z,58.21
2019-03-22T16:46:22.157Z,58.51
2019-03-22T16:47:58.662Z,58.63
2019-03-22T16:49:33.935Z,58.98
2019-03-22T16:51:09.194Z,58.80
2019-03-22T16:52:44.377Z,59.09
2019-03-22T16:54:19.592Z,59.28
2019-03-22T16:55:54.784Z,59.70
2019-03-22T16:57:29.984Z,59.93
2019-03-22T16:59:06.326Z,60.48
2019-03-22T17:00:41.704Z,61.47
2019-03-22T17:02:17.181Z,61.47
2019-03-22T17:03:52.407Z,62.23
2019-03-22T17:05:27.679Z,62.23
2019-03-22T17:07:02.888Z,62.34
2019-03-22T17:08:38.081Z,62.90
2019-03-22T17:10:13.351Z,63.15
2019-03-22T17:11:48.574Z,63.15
2019-03-22T17:13:23.846Z,63.59
2019-03-22T17:14:59.123Z,63.63
2019-03-22T17:16:34.521Z,64.07
2019-03-22T17:18:09.718Z,64.32
2019-03-22T17:19:45.071Z,64.30
2019-03-22T17:21:20.284Z,64.63
2019-03-22T17:22:55.585Z,65.01
2019-03-22T17:24:30.850Z,64.70
2019-03-22T17:26:06.127Z,64.70
2019-03-22T17:27:41.328Z,65.38
2019-03-22T17:29:16.549Z,65.55
2019-03-22T17:30:51.819Z,66.29
2019-03-22T17:32:27.046Z,66.21
2019-03-22T17:34:02.232Z,66.21
2019-03-22T17:35:37.417Z,66.43
2019-03-22T17:37:12.618Z,67.08
2019-03-22T17:38:47.798Z,67.36
2019-03-22T17:40:22.988Z,67.30
2019-03-22T17:41:59.798Z,67.30
2019-03-22T17:43:36.216Z,67.48
2019-03-22T17:45:12.038Z,67.03
2019-03-22T17:46:47.231Z,67.57
2019-03-22T17:48:22.429Z,67.95
2019-03-22T17:49:57.709Z,68.29
2019-03-22T17:51:32.878Z,68.29
2019-03-22T17:53:08.164Z,68.47
2019-03-22T17:54:43.372Z,68.88
2019-03-22T17:56:18.696Z,68.24
2019-03-22T17:57:54.018Z,68.20
2019-03-22T17:59:29.218Z,69.04
2019-03-22T18:01:04.624Z,69.04
2019-03-22T18:02:39.824Z,68.98
2019-03-22T18:04:23.853Z,69.06
2019-03-22T18:05:51.935Z,69.19
2019-03-22T18:07:27.331Z,69.36
2019-03-22T18:09:02.528Z,69.36
2019-03-22T18:10:38.989Z,69.04
2019-03-22T18:12:14.248Z,69.63
2019-03-22T18:13:49.471Z,69.54
2019-03-22T18:15:24.677Z,69.54
2019-03-22T18:16:59.976Z,69.70
2019-03-22T18:18:35.182Z,70.16
2019-03-22T18:20:10.556Z,70.16
2019-03-22T18:21:45.738Z,70.38
2019-03-22T18:23:20.941Z,70.49
2019-03-22T18:24:56.155Z,70.57
2019-03-22T18:26:32.986Z,70.66
2019-03-22T18:28:09.044Z,70.51
2019-03-22T18:29:44.289Z,70.27
2019-03-22T18:31:19.514Z,70.27
2019-03-22T18:32:54.702Z,70.77
2019-03-22T18:34:34.221Z,71.42
2019-03-22T18:36:06.785Z,70.83
2019-03-22T18:37:41.960Z,72.32
2019-03-22T18:39:17.159Z,72.32
2019-03-22T18:40:52.635Z,72.01
2019-03-22T18:42:27.836Z,71.12
2019-03-22T18:44:03.015Z,71.36
2019-03-22T18:45:38.229Z,71.36
2019-03-22T18:47:13.448Z,72.07
2019-03-22T18:48:48.638Z,71.54
2019-03-22T18:50:24.966Z,71.49
2019-03-22T18:52:00.164Z,71.49
2019-03-22T18:53:35.445Z,72.07
2019-03-22T18:55:11.691Z,72.07
2019-03-22T18:56:46.945Z,72.46
2019-03-22T18:58:23.731Z,72.17
2019-03-22T18:59:59.191Z,73.00
2019-03-22T19:01:34.358Z,72.42
2019-03-22T19:03:09.573Z,72.42
2019-03-22T19:04:44.773Z,71.11
2019-03-22T19:06:21.806Z,71.11
2019-03-22T19:07:56.873Z,71.55
2019-03-22T19:09:32.183Z,71.72
2019-03-22T19:11:07.374Z,71.72
2019-03-22T19:12:42.586Z,71.66
2019-03-22T19:14:17.791Z,70.98
2019-03-22T19:15:52.979Z,70.98
2019-03-22T19:17:28.196Z,71.23
2019-03-22T19:19:03.402Z,71.23
2019-03-22T19:20:38.896Z,70.96
2019-03-22T19:22:14.135Z,70.79
2019-03-22T19:23:49.320Z,70.83
2019-03-22T19:25:24.562Z,70.92
2019-03-22T19:26:59.808Z,71.02
2019-03-22T19:28:35.043Z,71.02
2019-03-22T19:30:10.925Z,70.60
2019-03-22T19:31:46.160Z,70.61
2019-03-22T19:33:21.413Z,70.61
2019-03-22T19:34:56.605Z,70.75
2019-03-22T19:36:31.801Z,70.78
2019-03-22T19:38:06.996Z,71.04
2019-03-22T19:39:42.195Z,71.10
2019-03-22T19:41:17.404Z,71.92
2019-03-22T19:42:52.638Z,71.94
2019-03-22T19:44:27.839Z,71.06
2019-03-22T19:46:03.031Z,71.97
2019-03-22T19:47:38.229Z,72.59
2019-03-22T19:49:13.546Z,72.59
2019-03-22T19:50:48.769Z,72.10
2019-03-22T19:52:23.957Z,72.73
2019-03-22T19:53:59.155Z,72.73
2019-03-22T19:55:34.743Z,72.82
2019-03-22T19:57:09.936Z,73.14
2019-03-22T19:58:45.119Z,72.32
2019-03-22T20:00:20.828Z,72.84
2019-03-22T20:01:56.076Z,73.09
2019-03-22T20:03:31.269Z,73.35
2019-03-22T20:05:07.142Z,73.58
2019-03-22T20:06:43.319Z,73.12
2019-03-22T20:08:18.540Z,73.91
2019-03-22T20:09:53.708Z,73.91
2019-03-22T20:11:29.015Z,74.70
2019-03-22T20:13:04.292Z,73.96
2019-03-22T20:14:39.486Z,73.96
2019-03-22T20:16:14.667Z,75.55
2019-03-22T20:17:50.138Z,74.76
2019-03-22T20:19:25.387Z,75.22
2019-03-22T20:21:00.588Z,74.70
2019-03-22T20:22:35.938Z,75.66
2019-03-22T20:24:11.128Z,76.22
2019-03-22T20:25:46.393Z,75.94
2019-03-22T20:27:23.258Z,75.44
2019-03-22T20:28:58.443Z,76.63
2019-03-22T20:30:33.597Z,75.97
2019-03-22T20:32:08.851Z,75.42
2019-03-22T20:33:44.044Z,75.17
2019-03-22T20:35:19.232Z,75.11